Time;durP1;ratioP1;P1;durP2;ratioP2;P2;SDS_P1;SDS_P2;PMS_P1;PMS_P2;Temp;Humidity;BMP_temperature;BMP_pressure;BME280_temperature;BME280_humidity;BME280_pressure;Samples;Min_cycle;Max_cycle;Signal;HPM_P1;HPM_P2
2022/10/31 00:01:29;;;;;;;55.20;12.57;;;9.50;99.90;;;;;;5098551;28;20184;-73
2022/10/31 00:03:54;;;;;;;46.58;11.90;;;9.50;99.90;;;;;;5098271;28;20651;-72
2022/10/31 00:06:24;;;;;;;51.08;11.02;;;9.60;99.90;;;;;;5098334;28;20183;-72
2022/10/31 00:08:55;;;;;;;91.47;11.85;;;9.60;99.90;;;;;;5116133;28;20739;-72
2022/10/31 00:14:42;;;;;;;133.77;11.77;;;9.60;99.90;;;;;;5116631;28;20256;-72
2022/10/31 00:17:08;;;;;;;119.00;10.57;;;9.60;99.90;;;;;;5098009;28;20200;-72
2022/10/31 00:19:33;;;;;;;75.22;10.38;;;9.60;99.90;;;;;;5098789;28;20183;-72
2022/10/31 00:21:59;;;;;;;84.45;11.23;;;9.60;99.90;;;;;;5116082;28;20263;-72
2022/10/31 00:24:25;;;;;;;115.68;11.68;;;9.70;99.90;;;;;;5116212;28;20251;-73
2022/10/31 00:26:50;;;;;;;88.07;11.73;;;9.70;99.90;;;;;;5097723;28;20205;-73
2022/10/31 00:29:16;;;;;;;115.15;13.05;;;9.80;99.90;;;;;;5098409;28;20196;-73
2022/10/31 00:31:41;;;;;;;142.90;11.48;;;9.70;99.90;;;;;;5097521;28;20670;-73
2022/10/31 00:34:07;;;;;;;84.55;11.60;;;9.60;99.90;;;;;;5097590;28;20173;-73
2022/10/31 00:36:32;;;;;;;44.95;10.20;;;9.60;99.90;;;;;;5097751;28;20180;-73
2022/10/31 00:38:58;;;;;;;82.20;11.20;;;9.80;99.90;;;;;;5097653;28;20203;-73
2022/10/31 00:41:24;;;;;;;79.60;10.98;;;9.80;99.90;;;;;;5097687;28;20176;-73
2022/10/31 00:43:50;;;;;;;26.63;9.77;;;9.60;99.90;;;;;;5098247;28;20172;-73
2022/10/31 00:46:15;;;;;;;23.52;9.32;;;9.60;99.90;;;;;;5097692;28;20544;-73
2022/10/31 00:48:41;;;;;;;50.65;10.75;;;9.70;99.90;;;;;;5097257;28;20727;-73
2022/10/31 00:51:08;;;;;;;50.25;9.25;;;9.70;99.90;;;;;;5097188;28;20720;-73
2022/10/31 00:53:33;;;;;;;43.15;8.80;;;9.70;99.90;;;;;;5097097;28;20184;-73
2022/10/31 00:55:59;;;;;;;48.80;8.77;;;9.70;99.90;;;;;;5098222;28;20180;-73
2022/10/31 00:58:25;;;;;;;48.38;8.95;;;9.60;99.90;;;;;;5097055;28;20230;-73
2022/10/31 01:00:56;;;;;;;88.50;10.02;;;9.50;99.90;;;;;;5097391;28;20176;-73
2022/10/31 01:03:28;;;;;;;37.88;8.07;;;9.50;99.90;;;;;;5096942;28;20172;-73
2022/10/31 01:05:58;;;;;;;23.95;8.73;;;9.60;99.90;;;;;;5097746;28;20182;-73
2022/10/31 01:08:24;;;;;;;49.35;8.32;;;9.70;99.90;;;;;;5097188;28;20200;-73
2022/10/31 01:11:03;;;;;;;57.53;8.48;;;9.70;99.90;;;;;;5115279;28;20283;-73
2022/10/31 01:13:28;;;;;;;55.95;8.63;;;9.60;99.90;;;;;;5115258;28;20196;-73
2022/10/31 01:15:55;;;;;;;44.97;8.50;;;9.50;99.90;;;;;;5115256;28;20583;-73
2022/10/31 01:18:21;;;;;;;28.58;8.00;;;9.40;99.90;;;;;;5096475;28;20350;-73
2022/10/31 01:20:47;;;;;;;21.55;7.00;;;9.50;99.90;;;;;;5115208;28;20176;-73
2022/10/31 01:23:12;;;;;;;39.65;8.45;;;9.50;99.90;;;;;;5096640;28;20194;-73
2022/10/31 01:25:38;;;;;;;28.75;7.68;;;9.40;99.90;;;;;;5097016;28;20244;-73
2022/10/31 01:28:03;;;;;;;30.00;8.80;;;9.30;99.90;;;;;;5096964;28;20192;-73
2022/10/31 01:30:29;;;;;;;26.20;8.63;;;9.10;99.90;;;;;;5096490;28;20226;-73
2022/10/31 01:32:54;;;;;;;9.18;7.68;;;9.00;99.90;;;;;;5114910;28;20172;-73
2022/10/31 01:35:20;;;;;;;10.40;8.35;;;9.00;99.90;;;;;;5097292;28;20172;-71
2022/10/31 01:37:45;;;;;;;13.10;8.48;;;9.10;99.90;;;;;;5096884;28;20184;-72
2022/10/31 01:40:11;;;;;;;10.10;7.78;;;9.00;99.90;;;;;;5097413;28;20175;-71
2022/10/31 01:42:36;;;;;;;21.48;7.85;;;9.10;99.90;;;;;;5096523;28;20248;-71
2022/10/31 01:45:03;;;;;;;9.80;7.32;;;9.10;99.90;;;;;;5096239;28;20176;-71
2022/10/31 01:47:45;;;;;;;9.02;7.53;;;9.00;99.90;;;;;;5096170;28;20215;-72
2022/10/31 01:50:28;;;;;;;8.32;7.05;;;9.00;99.90;;;;;;5096108;28;20259;-71
2022/10/31 01:52:54;;;;;;;10.65;7.05;;;9.10;99.90;;;;;;5096518;28;20266;-71
2022/10/31 01:55:35;;;;;;;12.40;7.20;;;9.10;99.90;;;;;;5114524;28;20178;-71
2022/10/31 01:58:07;;;;;;;10.80;6.95;;;9.20;99.90;;;;;;5096086;28;20287;-71
2022/10/31 02:00:33;;;;;;;9.55;7.00;;;9.20;99.90;;;;;;5114298;28;20647;-71
2022/10/31 02:02:59;;;;;;;16.17;7.45;;;9.30;99.90;;;;;;5114115;28;20228;-71
2022/10/31 02:05:28;;;;;;;20.13;7.00;;;9.40;99.90;;;;;;5096001;28;20182;-71
2022/10/31 02:08:10;;;;;;;15.13;6.63;;;9.40;99.90;;;;;;5096135;28;20196;-71
2022/10/31 02:10:36;;;;;;;18.23;6.78;;;9.40;99.90;;;;;;5113958;28;20184;-71
2022/10/31 02:13:05;;;;;;;18.13;7.60;;;9.40;99.90;;;;;;5095824;28;20212;-71
2022/10/31 02:15:31;;;;;;;23.05;6.28;;;9.50;99.90;;;;;;5113904;28;20546;-71
2022/10/31 02:17:57;;;;;;;18.10;6.40;;;9.60;99.90;;;;;;5113483;28;20204;-71
2022/10/31 02:20:25;;;;;;;14.98;6.43;;;9.60;99.90;;;;;;5095663;28;20233;-71
2022/10/31 02:23:09;;;;;;;27.95;6.93;;;9.50;99.90;;;;;;5114169;28;20183;-71
2022/10/31 02:25:38;;;;;;;43.20;8.50;;;9.40;99.90;;;;;;5114622;28;20184;-71
2022/10/31 02:31:43;;;;;;;55.42;8.93;;;9.10;99.90;;;;;;5113908;28;20240;-71
2022/10/31 02:34:23;;;;;;;19.17;8.38;;;9.10;99.90;;;;;;5114393;28;20163;-71
2022/10/31 02:37:34;;;;;;;89.57;9.52;;;9.20;99.90;;;;;;5114067;28;20622;-71
2022/10/31 02:40:25;;;;;;;114.35;10.07;;;9.10;99.90;;;;;;5050740;28;20279;-71
2022/10/31 02:43:06;;;;;;;14.82;7.95;;;9.00;99.90;;;;;;5095853;28;20172;-71
2022/10/31 02:45:50;;;;;;;20.42;6.97;;;9.20;99.90;;;;;;5114531;28;20170;-71
2022/10/31 02:48:24;;;;;;;16.42;6.38;;;9.20;99.90;;;;;;5095557;28;20199;-71
2022/10/31 02:50:55;;;;;;;17.55;7.30;;;9.20;99.90;;;;;;5096359;28;20196;-71
2022/10/31 02:53:21;;;;;;;34.50;12.18;;;9.00;99.90;;;;;;5095507;28;20175;-71
2022/10/31 02:56:05;;;;;;;27.08;10.13;;;9.00;99.90;;;;;;5114119;28;20172;-71
2022/10/31 02:58:36;;;;;;;10.98;8.20;;;8.90;99.90;;;;;;5095367;28;20200;-71
2022/10/31 03:01:14;;;;;;;16.17;7.07;;;9.00;99.90;;;;;;5113811;28;20164;-71
2022/10/31 03:04:17;;;;;;;9.40;8.15;;;9.10;99.90;;;;;;5113852;28;20161;-71
2022/10/31 03:07:13;;;;;;;7.40;6.65;;;9.00;99.90;;;;;;5096143;28;20545;-71
2022/10/31 03:10:15;;;;;;;7.00;6.30;;;9.00;99.90;;;;;;5095404;28;20210;-72
2022/10/31 03:13:06;;;;;;;7.15;6.45;;;9.00;99.90;;;;;;5095883;28;20180;-71
2022/10/31 03:15:48;;;;;;;8.82;6.60;;;8.90;99.90;;;;;;5095269;28;20165;-71
2022/10/31 03:18:25;;;;;;;10.18;6.28;;;8.90;99.90;;;;;;5113359;28;20204;-72
2022/10/31 03:20:57;;;;;;;6.68;6.07;;;8.90;99.90;;;;;;5096283;28;20164;-71
2022/10/31 03:23:24;;;;;;;7.97;6.03;;;8.90;99.90;;;;;;5095976;28;20187;-71
2022/10/31 03:25:53;;;;;;;5.40;4.90;;;8.90;99.90;;;;;;5095424;28;20262;-71
2022/10/31 03:28:26;;;;;;;5.60;5.03;;;8.90;99.90;;;;;;5095387;28;20196;-71
2022/10/31 03:30:53;;;;;;;6.00;5.40;;;8.90;99.90;;;;;;5098799;28;20195;-71
2022/10/31 03:33:24;;;;;;;5.70;5.20;;;8.80;99.90;;;;;;5117441;28;20255;-71
2022/10/31 03:35:53;;;;;;;6.72;5.18;;;8.80;99.90;;;;;;5099622;28;20183;-71
2022/10/31 03:38:20;;;;;;;5.90;5.43;;;8.80;99.90;;;;;;5098593;28;20191;-71
2022/10/31 03:40:48;;;;;;;6.60;5.85;;;8.80;99.90;;;;;;5098614;28;20225;-71
2022/10/31 03:43:21;;;;;;;8.30;6.22;;;8.80;99.90;;;;;;5099051;28;20184;-71
2022/10/31 03:45:47;;;;;;;10.82;6.75;;;8.90;99.90;;;;;;5098500;28;20643;-71
2022/10/31 03:48:15;;;;;;;8.65;7.10;;;8.90;99.90;;;;;;5098390;28;20207;-71
2022/10/31 03:51:01;;;;;;;16.80;6.90;;;8.90;99.90;;;;;;5116942;28;20207;-71
2022/10/31 03:53:39;;;;;;;68.03;7.60;;;8.90;99.90;;;;;;5099207;28;20165;-71
2022/10/31 03:56:32;;;;;;;42.08;7.50;;;8.90;99.90;;;;;;5098416;28;20719;-71
2022/10/31 03:59:03;;;;;;;45.55;8.50;;;8.60;99.90;;;;;;5116698;28;20566;-72
2022/10/31 04:01:32;;;;;;;20.27;9.18;;;8.50;99.90;;;;;;5117032;28;20188;-72
2022/10/31 04:03:58;;;;;;;82.93;9.73;;;8.50;99.90;;;;;;5098473;28;20556;-71
2022/10/31 04:06:25;;;;;;;68.45;10.57;;;8.50;99.90;;;;;;5116334;28;20202;-71
2022/10/31 04:08:55;;;;;;;72.18;9.07;;;8.40;99.90;;;;;;5097839;28;20195;-71
2022/10/31 04:11:24;;;;;;;49.97;9.10;;;8.40;99.90;;;;;;5097978;28;20184;-71
2022/10/31 04:13:52;;;;;;;24.58;7.45;;;8.40;99.90;;;;;;5098277;28;20172;-71
2022/10/31 04:16:19;;;;;;;24.42;7.32;;;8.30;99.90;;;;;;5116158;28;20175;-71
2022/10/31 04:18:45;;;;;;;25.45;6.85;;;8.20;99.90;;;;;;5097686;28;20242;-72
2022/10/31 04:24:32;;;;;;;65.13;8.07;;;8.10;99.90;;;;;;5116445;28;20160;-71
2022/10/31 04:26:58;;;;;;;9.00;6.78;;;8.10;99.90;;;;;;5097820;28;20172;-71
2022/10/31 04:29:23;;;;;;;6.85;6.20;;;8.10;99.90;;;;;;5097949;28;20263;-71
2022/10/31 04:31:49;;;;;;;7.68;5.97;;;8.20;99.90;;;;;;5116049;28;20200;-71
2022/10/31 04:34:15;;;;;;;27.13;6.38;;;8.30;99.90;;;;;;5116051;28;20176;-71
2022/10/31 04:36:41;;;;;;;7.82;5.70;;;8.30;99.90;;;;;;5097490;28;20543;-71
2022/10/31 04:39:07;;;;;;;52.88;7.03;;;8.40;99.90;;;;;;5097736;28;20245;-71
2022/10/31 04:41:33;;;;;;;18.67;5.85;;;8.30;99.90;;;;;;5097417;28;20192;-71
2022/10/31 04:43:58;;;;;;;13.50;5.63;;;8.40;99.90;;;;;;5098522;28;20240;-71
2022/10/31 04:46:24;;;;;;;9.07;5.32;;;8.50;99.90;;;;;;5097426;28;20180;-71
2022/10/31 04:48:49;;;;;;;12.07;6.20;;;8.50;99.90;;;;;;5097217;28;20674;-71
2022/10/31 04:51:15;;;;;;;19.23;6.55;;;8.50;99.90;;;;;;5097673;28;20234;-71
2022/10/31 04:53:40;;;;;;;26.90;6.20;;;8.50;99.90;;;;;;5097184;28;20644;-71
2022/10/31 04:56:06;;;;;;;15.48;5.88;;;8.60;99.90;;;;;;5115912;28;20245;-71
2022/10/31 04:58:32;;;;;;;6.28;5.75;;;8.50;99.90;;;;;;5097043;28;20196;-71
2022/10/31 05:00:57;;;;;;;9.65;5.32;;;8.50;99.90;;;;;;5098244;28;20180;-71
2022/10/31 05:03:23;;;;;;;7.90;5.00;;;8.60;99.90;;;;;;5097363;28;20182;-71
2022/10/31 05:05:49;;;;;;;15.13;5.03;;;8.70;99.90;;;;;;5096989;28;20318;-71
2022/10/31 05:08:15;;;;;;;13.63;5.28;;;8.70;99.90;;;;;;5096949;28;20188;-71
2022/10/31 05:10:40;;;;;;;15.05;5.25;;;8.70;99.90;;;;;;5115312;28;20192;-71
2022/10/31 05:13:06;;;;;;;15.40;5.50;;;8.70;99.90;;;;;;5097135;28;20175;-71
2022/10/31 05:15:32;;;;;;;29.80;5.80;;;8.80;99.90;;;;;;5115332;28;20176;-71
2022/10/31 05:17:57;;;;;;;34.95;5.72;;;8.80;99.90;;;;;;5115031;28;20200;-71
2022/10/31 05:20:26;;;;;;;81.40;7.00;;;8.70;99.90;;;;;;5115049;28;20187;-71
2022/10/31 05:22:55;;;;;;;53.65;6.88;;;8.60;99.90;;;;;;5097471;28;20207;-71
2022/10/31 05:25:22;;;;;;;66.03;12.43;;;8.50;99.90;;;;;;5096941;28;20631;-71
2022/10/31 05:27:50;;;;;;;179.23;15.30;;;8.60;99.90;;;;;;5096748;28;20617;-71
2022/10/31 05:30:19;;;;;;;30.58;10.25;;;8.40;99.90;;;;;;5096769;28;20188;-71
2022/10/31 05:32:46;;;;;;;90.60;12.50;;;8.40;99.90;;;;;;5096403;28;20253;-71
2022/10/31 05:35:15;;;;;;;66.72;11.40;;;8.40;99.90;;;;;;5096526;28;20172;-71
2022/10/31 05:37:41;;;;;;;51.35;10.65;;;8.40;99.90;;;;;;5096289;28;20192;-71
2022/10/31 05:43:42;;;;;;;86.18;8.98;;;8.50;99.90;;;;;;5114805;28;20209;-71
2022/10/31 05:46:07;;;;;;;104.80;9.70;;;8.40;99.90;;;;;;5096189;28;20534;-71
2022/10/31 05:48:33;;;;;;;117.20;9.95;;;8.50;99.90;;;;;;5096091;28;20227;-71
2022/10/31 05:50:58;;;;;;;56.15;9.45;;;8.40;99.90;;;;;;5114210;28;20192;-71
2022/10/31 05:53:24;;;;;;;104.57;9.90;;;8.40;99.90;;;;;;5113896;28;20178;-71
2022/10/31 05:55:49;;;;;;;80.88;8.88;;;8.50;99.90;;;;;;5096051;28;20175;-71
2022/10/31 05:58:15;;;;;;;78.95;9.90;;;8.50;99.90;;;;;;5096267;28;20192;-71
2022/10/31 06:00:40;;;;;;;104.22;10.00;;;8.50;99.90;;;;;;5095955;28;20544;-71
2022/10/31 06:03:08;;;;;;;60.80;9.25;;;8.70;99.90;;;;;;5114091;28;20219;-71
2022/10/31 06:05:34;;;;;;;39.58;9.13;;;8.70;99.90;;;;;;5095912;28;20218;-71
2022/10/31 06:07:59;;;;;;;28.90;8.05;;;8.70;99.90;;;;;;5095763;28;20192;-71
2022/10/31 06:10:25;;;;;;;94.13;8.73;;;8.80;99.90;;;;;;5096879;28;20212;-71
2022/10/31 06:12:52;;;;;;;58.60;8.82;;;8.80;99.90;;;;;;5113924;28;20734;-71
2022/10/31 06:15:18;;;;;;;76.80;9.80;;;8.90;99.90;;;;;;5114243;28;20202;-71
2022/10/31 06:17:43;;;;;;;39.35;9.30;;;8.70;99.90;;;;;;5095999;28;20687;-71
2022/10/31 06:20:10;;;;;;;54.15;9.82;;;8.80;99.90;;;;;;5113989;28;20260;-71
2022/10/31 06:22:35;;;;;;;45.13;9.98;;;9.00;99.90;;;;;;5095593;28;20303;-71
2022/10/31 06:25:01;;;;;;;73.03;10.93;;;9.10;99.90;;;;;;5114126;28;20184;-71
2022/10/31 06:27:27;;;;;;;61.10;10.57;;;8.90;99.90;;;;;;5096036;28;20192;-71
2022/10/31 06:30:04;;;;;;;30.17;10.20;;;8.90;99.90;;;;;;5095850;28;20225;-71
2022/10/31 06:32:29;;;;;;;32.30;11.02;;;8.80;99.90;;;;;;5114917;28;20164;-71
2022/10/31 06:34:55;;;;;;;44.25;11.68;;;9.00;99.90;;;;;;5095589;28;20225;-71
2022/10/31 06:37:20;;;;;;;37.97;10.43;;;9.10;99.90;;;;;;5113944;28;20211;-71
2022/10/31 06:39:46;;;;;;;51.45;10.48;;;9.20;99.90;;;;;;5095640;28;20176;-71
2022/10/31 06:42:12;;;;;;;49.55;11.35;;;9.20;99.90;;;;;;5114021;28;20176;-71
2022/10/31 06:44:38;;;;;;;37.22;11.73;;;9.20;99.90;;;;;;5095831;28;20172;-71
2022/10/31 06:47:08;;;;;;;27.02;9.90;;;9.30;99.90;;;;;;5096139;28;20168;-71
2022/10/31 06:49:33;;;;;;;35.78;9.60;;;9.50;99.90;;;;;;5096141;28;20179;-71
2022/10/31 06:52:27;;;;;;;59.60;25.42;;;9.50;99.90;;;;;;5096261;28;20203;-71
2022/10/31 06:54:52;;;;;;;50.42;27.20;;;9.30;99.90;;;;;;5114538;28;20243;-71
2022/10/31 06:57:18;;;;;;;34.90;15.10;;;9.40;99.90;;;;;;5095948;28;20711;-71
2022/10/31 07:00:16;;;;;;;25.38;13.27;;;9.50;99.90;;;;;;5095458;28;20179;-71
2022/10/31 07:02:41;;;;;;;22.48;10.18;;;9.50;99.90;;;;;;5095344;28;20658;-73
2022/10/31 07:05:07;;;;;;;22.98;8.13;;;9.60;99.90;;;;;;5117038;28;20184;-73
2022/10/31 07:07:39;;;;;;;14.30;8.95;;;9.60;99.90;;;;;;5099566;28;20199;-73
2022/10/31 07:10:06;;;;;;;23.73;13.20;;;9.60;99.90;;;;;;5117301;28;20167;-71
2022/10/31 07:12:31;;;;;;;11.30;10.30;;;9.50;99.90;;;;;;5099495;28;20172;-72
2022/10/31 07:15:06;;;;;;;14.10;7.00;;;9.50;99.90;;;;;;5117628;28;20213;-73
2022/10/31 07:17:48;;;;;;;11.43;7.10;;;9.40;99.90;;;;;;5099068;28;20207;-77
2022/10/31 07:20:15;;;;;;;14.10;6.60;;;9.40;99.90;;;;;;5099121;28;20196;-73
2022/10/31 07:22:40;;;;;;;7.53;6.03;;;9.30;99.90;;;;;;5099674;28;20164;-73
2022/10/31 07:25:07;;;;;;;10.80;9.70;;;9.30;99.90;;;;;;5099355;28;20187;-73
2022/10/31 07:27:42;;;;;;;12.85;11.50;;;9.30;99.90;;;;;;5099907;28;20356;-73
2022/10/31 07:30:09;;;;;;;18.17;13.65;;;9.40;99.90;;;;;;5117203;28;20160;-74
2022/10/31 07:32:42;;;;;;;14.63;13.13;;;9.40;99.90;;;;;;5116940;28;20164;-74
2022/10/31 07:35:27;;;;;;;12.77;9.02;;;9.40;99.90;;;;;;5099678;28;20513;-74
2022/10/31 07:37:54;;;;;;;12.77;9.63;;;9.60;99.90;;;;;;5116979;28;20188;-73
2022/10/31 07:44:44;;;;;;;7.22;6.53;;;9.80;99.90;;;;;;5117043;28;20167;-75
2022/10/31 07:47:10;;;;;;;13.25;9.07;;;10.10;99.90;;;;;;5099464;28;20168;-73
2022/10/31 07:50:12;;;;;;;16.15;10.57;;;10.30;99.90;;;;;;5100247;28;20183;-81
2022/10/31 07:53:28;;;;;;;10.45;9.07;;;10.40;99.90;;;;;;5098887;28;20183;-74
2022/10/31 07:55:54;;;;;;;8.80;7.70;;;10.40;99.90;;;;;;5099190;28;20200;-73
2022/10/31 07:58:19;;;;;;;8.68;7.78;;;10.30;99.90;;;;;;5098869;28;20192;-73
2022/10/31 08:00:47;;;;;;;10.15;7.93;;;10.40;99.90;;;;;;5099163;28;20173;-73
2022/10/31 08:03:19;;;;;;;12.32;9.45;;;10.60;99.90;;;;;;5098291;28;20662;-74
2022/10/31 08:05:46;;;;;;;11.45;8.90;;;10.80;99.90;;;;;;5098727;28;20178;-75
2022/10/31 08:08:12;;;;;;;14.57;9.82;;;10.70;99.90;;;;;;5098893;28;20199;-75
2022/10/31 08:14:00;;;;;;;14.57;9.27;;;10.80;99.90;;;;;;5116893;28;20198;-73
2022/10/31 08:16:26;;;;;;;13.88;10.25;;;10.90;99.90;;;;;;5097646;28;20221;-73
2022/10/31 08:18:55;;;;;;;14.95;10.30;;;11.00;99.90;;;;;;5116116;28;20208;-73
2022/10/31 08:21:21;;;;;;;13.80;9.35;;;11.10;99.90;;;;;;5097946;28;20181;-74
2022/10/31 08:23:46;;;;;;;23.15;16.23;;;11.20;99.90;;;;;;5097809;28;20183;-74
2022/10/31 08:26:12;;;;;;;18.67;12.13;;;11.20;99.90;;;;;;5098164;28;20172;-74
2022/10/31 08:28:37;;;;;;;19.17;14.35;;;11.20;99.90;;;;;;5098299;28;20200;-73
2022/10/31 08:31:03;;;;;;;18.40;12.30;;;11.30;99.90;;;;;;5097543;28;20204;-73
2022/10/31 08:33:28;;;;;;;12.77;10.55;;;11.40;99.90;;;;;;5116435;28;20199;-73
2022/10/31 08:35:54;;;;;;;13.98;8.98;;;11.40;99.90;;;;;;5097590;28;20172;-73
2022/10/31 08:38:20;;;;;;;9.93;8.43;;;11.50;99.90;;;;;;5097832;28;20275;-73
2022/10/31 08:40:48;;;;;;;10.35;8.63;;;11.70;99.90;;;;;;5097783;28;20176;-74
2022/10/31 08:43:16;;;;;;;12.27;9.48;;;11.80;99.90;;;;;;5097468;28;20271;-75
2022/10/31 08:45:42;;;;;;;12.25;8.68;;;11.90;99.90;;;;;;5115545;28;20240;-74
2022/10/31 08:48:13;;;;;;;13.18;9.35;;;11.90;99.90;;;;;;5097210;28;20222;-73
2022/10/31 08:50:40;;;;;;;13.18;9.70;;;12.00;99.90;;;;;;5097502;28;20212;-73
2022/10/31 08:53:17;;;;;;;20.05;12.88;;;12.00;99.90;;;;;;5098206;28;20534;-73
2022/10/31 08:55:44;;;;;;;24.33;11.00;;;12.00;99.90;;;;;;5115690;28;20160;-75
2022/10/31 08:58:12;;;;;;;14.60;9.63;;;12.00;99.90;;;;;;5097390;28;20224;-74
2022/10/31 09:00:38;;;;;;;10.90;8.93;;;12.10;99.90;;;;;;5097600;28;20173;-74
2022/10/31 09:03:08;;;;;;;14.32;8.30;;;12.20;99.90;;;;;;5115452;28;20207;-72
2022/10/31 09:05:34;;;;;;;9.88;8.15;;;12.30;99.90;;;;;;5097876;28;20186;-71
2022/10/31 09:08:01;;;;;;;13.40;8.60;;;12.40;99.90;;;;;;5096838;28;20591;-71
2022/10/31 09:10:28;;;;;;;13.15;8.32;;;12.50;99.90;;;;;;5096797;28;20254;-71
2022/10/31 09:13:12;;;;;;;10.73;7.43;;;12.50;99.90;;;;;;5096838;28;20213;-71
2022/10/31 09:15:40;;;;;;;12.90;6.90;;;12.50;99.90;;;;;;5096825;28;20172;-71
2022/10/31 09:18:07;;;;;;;9.70;7.07;;;12.60;99.90;;;;;;5114919;28;20196;-71
2022/10/31 09:20:33;;;;;;;10.23;7.53;;;12.60;99.90;;;;;;5096656;28;20192;-71
2022/10/31 09:23:01;;;;;;;9.30;7.13;;;12.60;99.90;;;;;;5097008;28;20172;-71
2022/10/31 09:25:27;;;;;;;8.63;6.75;;;12.70;99.90;;;;;;5097483;28;20183;-71
2022/10/31 09:27:57;;;;;;;8.60;7.40;;;12.70;99.90;;;;;;5095416;28;20230;-71
2022/10/31 09:30:23;;;;;;;8.75;7.28;;;12.70;99.90;;;;;;5096504;28;20207;-71
2022/10/31 09:33:26;;;;;;;14.38;7.22;;;12.80;99.90;;;;;;5114721;28;20225;-71
2022/10/31 09:35:52;;;;;;;10.38;7.18;;;12.80;99.90;;;;;;5114925;28;20674;-71
2022/10/31 09:38:19;;;;;;;8.60;7.22;;;12.90;99.90;;;;;;5114792;28;20216;-71
2022/10/31 09:40:55;;;;;;;10.25;7.45;;;13.00;99.90;;;;;;5096314;28;20190;-71
2022/10/31 09:43:46;;;;;;;10.30;6.70;;;13.00;99.90;;;;;;5097259;28;20218;-72
2022/10/31 09:49:58;;;;;;;11.68;8.73;;;13.00;99.90;;;;;;5114712;28;20206;-73
2022/10/31 09:52:33;;;;;;;26.67;9.02;;;13.10;99.90;;;;;;5096673;28;20345;-73
2022/10/31 09:55:16;;;;;;;14.05;7.95;;;13.10;99.90;;;;;;5097051;28;20168;-73
2022/10/31 09:57:44;;;;;;;13.23;8.15;;;13.20;99.90;;;;;;5096202;28;20219;-73
2022/10/31 10:00:19;;;;;;;11.77;8.23;;;13.20;99.90;;;;;;5096153;28;20180;-73
2022/10/31 10:02:59;;;;;;;13.00;8.15;;;13.20;99.90;;;;;;5096374;28;20175;-73
2022/10/31 10:08:54;;;;;;;12.98;8.30;;;13.30;99.90;;;;;;5115040;28;20190;-75
2022/10/31 10:11:48;;;;;;;11.40;8.40;;;13.30;99.90;;;;;;5097342;28;20245;-73
2022/10/31 10:14:40;;;;;;;9.38;7.70;;;13.30;99.90;;;;;;5096630;28;20168;-73
2022/10/31 10:17:31;;;;;;;9.50;7.95;;;13.40;99.90;;;;;;5097154;28;20171;-73
2022/10/31 10:20:12;;;;;;;10.38;8.07;;;13.50;99.90;;;;;;5096609;28;20188;-74
2022/10/31 10:22:56;;;;;;;10.93;7.88;;;13.60;99.90;;;;;;5096183;28;20172;-70
2022/10/31 10:25:25;;;;;;;13.50;8.48;;;13.60;99.90;;;;;;5096647;28;20640;-71
2022/10/31 10:28:21;;;;;;;10.68;9.43;;;13.80;99.90;;;;;;5095929;28;20192;-74
2022/10/31 10:31:07;;;;;;;13.32;10.60;;;13.90;99.90;;;;;;5095888;28;20207;-74
2022/10/31 10:33:54;;;;;;;15.15;11.82;;;14.00;99.90;;;;;;5114298;28;20171;-71
2022/10/31 10:36:35;;;;;;;13.88;11.98;;;14.10;99.90;;;;;;5114413;28;20161;-71
2022/10/31 10:39:40;;;;;;;15.90;11.70;;;14.10;99.90;;;;;;5116635;28;20279;-71
2022/10/31 10:48:32;;;;;;;14.10;11.57;;;14.30;99.90;;;;;;5118745;28;20210;-72
2022/10/31 10:51:06;;;;;;;16.27;10.05;;;14.30;99.90;;;;;;5118137;28;20191;-72
2022/10/31 10:54:01;;;;;;;13.60;9.52;;;14.30;99.90;;;;;;5099792;28;20251;-72
2022/10/31 10:56:50;;;;;;;11.45;9.43;;;14.40;99.90;;;;;;5100516;28;20168;-72
2022/10/31 11:03:27;;;;;;;12.02;10.57;;;14.40;99.90;;;;;;5118177;28;20167;-72
2022/10/31 11:09:16;;;;;;;15.07;10.85;;;14.40;99.90;;;;;;5117408;28;20192;-72
2022/10/31 11:11:42;;;;;;;13.40;10.32;;;14.50;99.90;;;;;;5099960;28;20207;-72
2022/10/31 11:17:39;;;;;;;15.85;11.20;;;14.60;99.90;;;;;;5117644;28;20256;-72
2022/10/31 11:20:37;;;;;;;15.90;11.80;;;14.70;99.90;;;;;;5099209;28;20191;-72
2022/10/31 11:23:23;;;;;;;15.35;11.77;;;14.80;99.90;;;;;;5093194;28;20188;-72
2022/10/31 11:26:29;;;;;;;13.75;11.18;;;14.90;99.90;;;;;;5117766;28;20173;-72
2022/10/31 11:28:58;;;;;;;15.80;12.85;;;15.00;99.90;;;;;;5099440;28;20200;-72
2022/10/31 11:31:35;;;;;;;14.70;11.93;;;15.10;99.90;;;;;;5099393;28;20311;-72
2022/10/31 11:34:05;;;;;;;17.65;12.10;;;15.30;99.90;;;;;;5099397;28;20217;-72
2022/10/31 11:36:33;;;;;;;12.07;10.80;;;15.40;99.90;;;;;;5099955;28;20195;-72
2022/10/31 11:39:01;;;;;;;13.40;10.40;;;15.50;99.90;;;;;;5098642;28;20200;-72
2022/10/31 11:41:42;;;;;;;15.68;11.00;;;15.60;99.90;;;;;;5117130;28;20259;-72
2022/10/31 11:44:16;;;;;;;12.65;10.98;;;15.70;99.90;;;;;;5098648;28;20258;-72
2022/10/31 11:46:47;;;;;;;14.73;10.82;;;15.70;99.90;;;;;;5116806;28;20650;-72
2022/10/31 11:49:28;;;;;;;15.25;11.50;;;15.90;99.90;;;;;;5098932;28;20192;-72
2022/10/31 11:51:57;;;;;;;19.38;13.13;;;15.90;99.90;;;;;;5097754;28;20208;-72
2022/10/31 12:01:02;;;;;;;14.40;9.82;;;16.10;99.90;;;;;;5116919;28;20198;-72
2022/10/31 12:04:23;;;;;;;17.23;11.52;;;16.20;99.90;;;;;;5098601;28;20653;-72
2022/10/31 12:07:00;;;;;;;19.60;10.63;;;16.30;99.90;;;;;;5099086;28;20167;-72
2022/10/31 12:09:40;;;;;;;23.00;15.60;;;16.30;99.90;;;;;;5098044;28;20287;-72
2022/10/31 12:12:37;;;;;;;19.00;10.65;;;16.40;99.90;;;;;;5099004;28;20249;-76
2022/10/31 12:18:53;;;;;;;14.80;10.70;;;16.20;99.90;;;;;;5116476;28;20192;-77
2022/10/31 12:21:46;;;;;;;24.73;11.85;;;16.10;99.90;;;;;;5095032;28;20520;-76
2022/10/31 12:24:39;;;;;;;21.52;12.15;;;16.20;99.90;;;;;;5095769;28;20180;-77
2022/10/31 12:27:43;;;;;;;15.35;11.18;;;16.30;99.90;;;;;;5096090;28;20176;-77
2022/10/31 12:30:16;;;;;;;15.75;11.18;;;16.30;99.90;;;;;;5057541;28;20185;-76
2022/10/31 12:32:59;;;;;;;15.23;10.40;;;16.30;99.90;;;;;;5094568;28;20624;-75
2022/10/31 12:36:00;;;;;;;16.77;11.20;;;16.30;99.90;;;;;;5095503;28;20162;-74
2022/10/31 12:39:00;;;;;;;15.85;10.23;;;16.30;99.90;;;;;;5094742;28;20188;-75
2022/10/31 12:42:01;;;;;;;20.08;10.75;;;16.20;99.90;;;;;;5095660;28;20157;-75
2022/10/31 12:44:45;;;;;;;18.27;11.45;;;16.20;99.90;;;;;;5095185;28;20169;-74
2022/10/31 12:47:52;;;;;;;22.70;11.50;;;16.10;99.90;;;;;;5094894;28;20226;-74
2022/10/31 12:50:47;;;;;;;17.20;11.40;;;16.00;99.90;;;;;;5095266;28;20239;-75
2022/10/31 12:53:24;;;;;;;12.27;11.07;;;16.00;99.90;;;;;;5094724;28;20563;-75
2022/10/31 12:59:20;;;;;;;19.13;11.15;;;16.00;99.90;;;;;;5095249;28;20732;-75
2022/10/31 13:01:58;;;;;;;16.63;11.05;;;16.10;99.90;;;;;;5093400;28;20576;-75
2022/10/31 13:08:06;;;;;;;15.20;11.00;;;16.10;99.90;;;;;;5095118;28;20272;-75
2022/10/31 13:10:57;;;;;;;17.30;11.75;;;16.10;99.90;;;;;;5095008;28;20223;-75
2022/10/31 13:13:41;;;;;;;14.00;11.07;;;16.20;99.90;;;;;;5096890;28;20165;-75
2022/10/31 13:16:26;;;;;;;17.80;11.30;;;16.10;99.90;;;;;;5096543;28;20168;-75
2022/10/31 13:19:01;;;;;;;15.98;10.55;;;16.20;99.90;;;;;;5097222;28;20273;-75
2022/10/31 13:21:44;;;;;;;20.25;11.50;;;16.20;99.90;;;;;;5097398;28;20160;-75
2022/10/31 13:24:18;;;;;;;19.40;11.77;;;16.20;99.90;;;;;;5098197;28;20165;-76
2022/10/31 13:26:54;;;;;;;14.02;11.40;;;16.20;99.90;;;;;;5099158;28;20161;-76
2022/10/31 13:29:22;;;;;;;16.13;11.63;;;16.10;99.90;;;;;;5096435;28;20238;-76
2022/10/31 13:31:49;;;;;;;16.63;11.50;;;16.10;99.90;;;;;;5101933;28;20227;-72
2022/10/31 13:34:28;;;;;;;14.90;10.50;;;16.20;99.90;;;;;;5097964;28;20230;-72
2022/10/31 13:37:03;;;;;;;13.52;10.68;;;16.30;99.90;;;;;;5098381;28;20165;-73
2022/10/31 13:39:35;;;;;;;15.18;10.32;;;16.40;99.90;;;;;;5093156;28;20217;-72
2022/10/31 13:42:15;;;;;;;19.67;10.48;;;16.40;99.90;;;;;;5094645;28;20215;-72
2022/10/31 13:48:15;;;;;;;16.40;10.63;;;16.40;99.90;;;;;;5094358;28;20222;-72
2022/10/31 13:54:24;;;;;;;17.08;10.40;;;16.40;99.90;;;;;;5094321;28;20210;-72
2022/10/31 13:56:51;;;;;;;18.25;10.82;;;16.40;99.90;;;;;;5093728;28;20161;-72
2022/10/31 13:59:47;;;;;;;18.05;10.70;;;16.30;99.90;;;;;;5092993;28;20227;-72
2022/10/31 14:02:16;;;;;;;21.55;11.35;;;16.30;99.90;;;;;;5093185;28;20667;-72
2022/10/31 14:05:01;;;;;;;21.23;10.40;;;16.20;99.90;;;;;;5094078;28;20180;-73
2022/10/31 14:07:28;;;;;;;19.23;10.80;;;16.10;99.90;;;;;;5094673;28;20188;-75
2022/10/31 14:10:21;;;;;;;18.35;11.07;;;16.10;99.90;;;;;;5094442;28;20264;-72
2022/10/31 14:16:26;;;;;;;18.70;10.98;;;16.00;99.90;;;;;;5096066;28;20646;-74
2022/10/31 14:19:06;;;;;;;16.02;11.00;;;15.90;99.90;;;;;;5093551;28;20211;-75
2022/10/31 14:21:50;;;;;;;17.02;11.25;;;15.90;99.90;;;;;;5093064;28;20161;-74
2022/10/31 14:24:25;;;;;;;22.67;12.00;;;15.90;99.90;;;;;;5093212;28;20160;-73